sensor_id;sensor_type;location;lat;lon;timestamp;temperature;humidity
35960;DHT22;22043;50.970;7.192;2022-11-25T00:01:19;8.30;99.90
35960;DHT22;22043;50.970;7.192;2022-11-25T00:03:46;8.30;99.90
35960;DHT22;22043;50.970;7.192;2022-11-25T00:06:15;8.40;99.90
35960;DHT22;22043;50.970;7.192;2022-11-25T00:08:42;8.40;99.90
35960;DHT22;22043;50.970;7.192;2022-11-25T00:11:09;8.30;99.90
35960;DHT22;22043;50.970;7.192;2022-11-25T00:13:36;8.30;99.90
35960;DHT22;22043;50.970;7.192;2022-11-25T00:16:03;8.30;99.90
35960;DHT22;22043;50.970;7.192;2022-11-25T00:18:29;8.40;99.90
35960;DHT22;22043;50.970;7.192;2022-11-25T00:20:55;8.30;99.90
35960;DHT22;22043;50.970;7.192;2022-11-25T00:23:21;8.40;99.90
35960;DHT22;22043;50.970;7.192;2022-11-25T00:25:47;8.40;99.90
35960;DHT22;22043;50.970;7.192;2022-11-25T00:28:12;8.40;99.90
35960;DHT22;22043;50.970;7.192;2022-11-25T00:30:38;8.40;99.90
35960;DHT22;22043;50.970;7.192;2022-11-25T00:33:04;8.40;99.90
35960;DHT22;22043;50.970;7.192;2022-11-25T00:35:29;8.30;99.90
35960;DHT22;22043;50.970;7.192;2022-11-25T00:37:55;8.30;99.90
35960;DHT22;22043;50.970;7.192;2022-11-25T00:40:21;8.30;99.90
35960;DHT22;22043;50.970;7.192;2022-11-25T00:42:46;8.30;99.90
35960;DHT22;22043;50.970;7.192;2022-11-25T00:45:30;8.30;99.90
35960;DHT22;22043;50.970;7.192;2022-11-25T00:47:56;8.20;99.90
35960;DHT22;22043;50.970;7.192;2022-11-25T00:50:21;8.30;99.90
35960;DHT22;22043;50.970;7.192;2022-11-25T00:52:47;8.30;99.90
35960;DHT22;22043;50.970;7.192;2022-11-25T00:55:13;8.20;99.90
35960;DHT22;22043;50.970;7.192;2022-11-25T00:57:38;8.20;99.90
35960;DHT22;22043;50.970;7.192;2022-11-25T01:00:05;8.10;99.90
35960;DHT22;22043;50.970;7.192;2022-11-25T01:02:31;8.10;99.90
35960;DHT22;22043;50.970;7.192;2022-11-25T01:04:56;8.10;99.90
35960;DHT22;22043;50.970;7.192;2022-11-25T01:07:22;8.10;99.90
35960;DHT22;22043;50.970;7.192;2022-11-25T01:09:47;8.00;99.90
35960;DHT22;22043;50.970;7.192;2022-11-25T01:12:13;8.00;99.90
35960;DHT22;22043;50.970;7.192;2022-11-25T01:14:39;8.00;99.90
35960;DHT22;22043;50.970;7.192;2022-11-25T01:17:05;8.00;99.90
35960;DHT22;22043;50.970;7.192;2022-11-25T01:19:31;8.00;99.90
35960;DHT22;22043;50.970;7.192;2022-11-25T01:21:58;8.00;99.90
35960;DHT22;22043;50.970;7.192;2022-11-25T01:24:24;8.00;99.90
35960;DHT22;22043;50.970;7.192;2022-11-25T01:26:52;8.00;99.90
35960;DHT22;22043;50.970;7.192;2022-11-25T01:29:20;8.00;99.90
35960;DHT22;22043;50.970;7.192;2022-11-25T01:31:46;8.00;99.90
35960;DHT22;22043;50.970;7.192;2022-11-25T01:34:23;8.00;99.90
35960;DHT22;22043;50.970;7.192;2022-11-25T01:36:50;8.10;99.90
35960;DHT22;22043;50.970;7.192;2022-11-25T01:39:18;8.10;99.90
35960;DHT22;22043;50.970;7.192;2022-11-25T01:41:44;8.10;99.90
35960;DHT22;22043;50.970;7.192;2022-11-25T01:44:15;8.10;99.90
35960;DHT22;22043;50.970;7.192;2022-11-25T01:46:42;8.10;99.90
35960;DHT22;22043;50.970;7.192;2022-11-25T01:49:55;8.10;99.90
35960;DHT22;22043;50.970;7.192;2022-11-25T01:52:09;8.20;99.90
35960;DHT22;22043;50.970;7.192;2022-11-25T01:54:46;8.20;99.90
35960;DHT22;22043;50.970;7.192;2022-11-25T01:57:21;8.20;99.90
35960;DHT22;22043;50.970;7.192;2022-11-25T01:59:50;8.30;99.90
35960;DHT22;22043;50.970;7.192;2022-11-25T02:02:18;8.30;99.90
35960;DHT22;22043;50.970;7.192;2022-11-25T02:04:45;8.30;99.90
35960;DHT22;22043;50.970;7.192;2022-11-25T02:07:23;8.40;99.90
35960;DHT22;22043;50.970;7.192;2022-11-25T02:09:50;8.40;99.90
35960;DHT22;22043;50.970;7.192;2022-11-25T02:12:17;8.40;99.90
35960;DHT22;22043;50.970;7.192;2022-11-25T02:14:44;8.40;99.90
35960;DHT22;22043;50.970;7.192;2022-11-25T02:17:11;8.40;99.90
35960;DHT22;22043;50.970;7.192;2022-11-25T02:22:49;8.50;99.90
35960;DHT22;22043;50.970;7.192;2022-11-25T02:25:18;8.50;99.90
35960;DHT22;22043;50.970;7.192;2022-11-25T02:27:48;8.50;99.90
35960;DHT22;22043;50.970;7.192;2022-11-25T02:30:15;8.60;99.90
35960;DHT22;22043;50.970;7.192;2022-11-25T02:32:47;8.60;99.90
35960;DHT22;22043;50.970;7.192;2022-11-25T02:35:54;8.60;99.90
35960;DHT22;22043;50.970;7.192;2022-11-25T02:38:30;8.60;99.90
35960;DHT22;22043;50.970;7.192;2022-11-25T02:43:29;8.60;99.90
35960;DHT22;22043;50.970;7.192;2022-11-25T02:45:59;8.60;99.90
35960;DHT22;22043;50.970;7.192;2022-11-25T02:48:27;8.60;99.90
35960;DHT22;22043;50.970;7.192;2022-11-25T02:50:53;8.60;99.90
35960;DHT22;22043;50.970;7.192;2022-11-25T02:53:19;8.60;99.90
35960;DHT22;22043;50.970;7.192;2022-11-25T02:55:45;8.60;99.90
35960;DHT22;22043;50.970;7.192;2022-11-25T02:58:12;8.60;99.90
35960;DHT22;22043;50.970;7.192;2022-11-25T03:00:38;8.60;99.90
35960;DHT22;22043;50.970;7.192;2022-11-25T03:03:05;8.60;99.90
35960;DHT22;22043;50.970;7.192;2022-11-25T03:05:30;8.60;99.90
35960;DHT22;22043;50.970;7.192;2022-11-25T03:07:58;8.60;99.90
35960;DHT22;22043;50.970;7.192;2022-11-25T03:10:24;8.60;99.90
35960;DHT22;22043;50.970;7.192;2022-11-25T03:12:50;8.60;99.90
35960;DHT22;22043;50.970;7.192;2022-11-25T03:15:16;8.60;99.90
35960;DHT22;22043;50.970;7.192;2022-11-25T03:17:43;8.60;99.90
35960;DHT22;22043;50.970;7.192;2022-11-25T03:20:09;8.60;99.90
35960;DHT22;22043;50.970;7.192;2022-11-25T03:22:37;8.60;99.90
35960;DHT22;22043;50.970;7.192;2022-11-25T03:25:03;8.60;99.90
35960;DHT22;22043;50.970;7.192;2022-11-25T03:27:29;8.60;99.90
35960;DHT22;22043;50.970;7.192;2022-11-25T03:29:55;8.60;99.90
35960;DHT22;22043;50.970;7.192;2022-11-25T03:32:20;8.60;99.90
35960;DHT22;22043;50.970;7.192;2022-11-25T03:34:46;8.70;99.90
35960;DHT22;22043;50.970;7.192;2022-11-25T03:37:12;8.70;99.90
35960;DHT22;22043;50.970;7.192;2022-11-25T03:39:38;8.80;99.90
35960;DHT22;22043;50.970;7.192;2022-11-25T03:42:05;8.80;99.90
35960;DHT22;22043;50.970;7.192;2022-11-25T03:44:31;8.80;99.90
35960;DHT22;22043;50.970;7.192;2022-11-25T03:46:57;8.80;99.90
35960;DHT22;22043;50.970;7.192;2022-11-25T03:49:22;8.80;99.90
35960;DHT22;22043;50.970;7.192;2022-11-25T03:51:48;8.90;99.90
35960;DHT22;22043;50.970;7.192;2022-11-25T03:54:16;8.80;99.90
35960;DHT22;22043;50.970;7.192;2022-11-25T03:57:09;8.90;99.90
35960;DHT22;22043;50.970;7.192;2022-11-25T03:59:36;8.90;99.90
35960;DHT22;22043;50.970;7.192;2022-11-25T04:02:02;8.90;99.90
35960;DHT22;22043;50.970;7.192;2022-11-25T04:04:28;8.90;99.90
35960;DHT22;22043;50.970;7.192;2022-11-25T04:06:54;8.90;99.90
35960;DHT22;22043;50.970;7.192;2022-11-25T04:09:21;8.90;99.90
35960;DHT22;22043;50.970;7.192;2022-11-25T04:11:47;9.00;99.90
35960;DHT22;22043;50.970;7.192;2022-11-25T04:14:42;9.00;99.90
35960;DHT22;22043;50.970;7.192;2022-11-25T04:17:08;9.10;99.90
35960;DHT22;22043;50.970;7.192;2022-11-25T04:19:35;9.10;99.90
35960;DHT22;22043;50.970;7.192;2022-11-25T04:22:01;9.10;99.90
35960;DHT22;22043;50.970;7.192;2022-11-25T04:24:29;9.10;99.90
35960;DHT22;22043;50.970;7.192;2022-11-25T04:26:55;9.20;99.90
35960;DHT22;22043;50.970;7.192;2022-11-25T04:29:21;9.20;99.90
35960;DHT22;22043;50.970;7.192;2022-11-25T04:31:47;9.20;99.90
35960;DHT22;22043;50.970;7.192;2022-11-25T04:34:13;9.20;99.90
35960;DHT22;22043;50.970;7.192;2022-11-25T04:36:39;9.30;99.90
35960;DHT22;22043;50.970;7.192;2022-11-25T04:39:05;9.20;99.90
35960;DHT22;22043;50.970;7.192;2022-11-25T04:41:32;9.30;99.90
35960;DHT22;22043;50.970;7.192;2022-11-25T04:43:59;9.30;99.90
35960;DHT22;22043;50.970;7.192;2022-11-25T04:46:33;9.30;99.90
35960;DHT22;22043;50.970;7.192;2022-11-25T04:49:00;9.30;99.90
35960;DHT22;22043;50.970;7.192;2022-11-25T04:51:26;9.20;99.90
35960;DHT22;22043;50.970;7.192;2022-11-25T04:53:57;9.30;99.90
35960;DHT22;22043;50.970;7.192;2022-11-25T04:56:23;9.30;99.90
35960;DHT22;22043;50.970;7.192;2022-11-25T04:58:51;9.30;99.90
35960;DHT22;22043;50.970;7.192;2022-11-25T05:01:39;9.30;99.90
35960;DHT22;22043;50.970;7.192;2022-11-25T05:04:19;9.30;99.90
35960;DHT22;22043;50.970;7.192;2022-11-25T05:06:45;9.20;99.90
35960;DHT22;22043;50.970;7.192;2022-11-25T05:09:12;9.20;99.90
35960;DHT22;22043;50.970;7.192;2022-11-25T05:11:39;9.10;99.90
35960;DHT22;22043;50.970;7.192;2022-11-25T05:14:05;9.10;99.90
35960;DHT22;22043;50.970;7.192;2022-11-25T05:16:32;9.00;99.90
35960;DHT22;22043;50.970;7.192;2022-11-25T05:18:59;9.00;99.90
35960;DHT22;22043;50.970;7.192;2022-11-25T05:21:26;9.00;99.90
35960;DHT22;22043;50.970;7.192;2022-11-25T05:23:53;8.90;99.90
35960;DHT22;22043;50.970;7.192;2022-11-25T05:26:19;8.90;99.90
35960;DHT22;22043;50.970;7.192;2022-11-25T05:28:48;8.80;99.90
35960;DHT22;22043;50.970;7.192;2022-11-25T05:31:14;8.70;99.90
35960;DHT22;22043;50.970;7.192;2022-11-25T05:33:39;8.70;99.90
35960;DHT22;22043;50.970;7.192;2022-11-25T05:36:09;8.60;99.90
35960;DHT22;22043;50.970;7.192;2022-11-25T05:38:44;8.60;99.90
35960;DHT22;22043;50.970;7.192;2022-11-25T05:41:13;8.60;99.90
35960;DHT22;22043;50.970;7.192;2022-11-25T05:43:41;8.60;99.90
35960;DHT22;22043;50.970;7.192;2022-11-25T05:46:07;8.70;99.90
35960;DHT22;22043;50.970;7.192;2022-11-25T05:48:35;8.60;99.90
35960;DHT22;22043;50.970;7.192;2022-11-25T05:51:02;8.70;99.90
35960;DHT22;22043;50.970;7.192;2022-11-25T05:53:30;8.60;99.90
35960;DHT22;22043;50.970;7.192;2022-11-25T05:55:59;8.60;99.90
35960;DHT22;22043;50.970;7.192;2022-11-25T05:58:43;8.60;99.90
35960;DHT22;22043;50.970;7.192;2022-11-25T06:01:11;8.60;99.90
35960;DHT22;22043;50.970;7.192;2022-11-25T06:03:37;8.60;99.90
35960;DHT22;22043;50.970;7.192;2022-11-25T06:06:04;8.60;99.90
35960;DHT22;22043;50.970;7.192;2022-11-25T06:08:31;8.60;99.90
35960;DHT22;22043;50.970;7.192;2022-11-25T06:10:58;8.60;99.90
35960;DHT22;22043;50.970;7.192;2022-11-25T06:13:24;8.60;99.90
35960;DHT22;22043;50.970;7.192;2022-11-25T06:15:50;8.60;99.90
35960;DHT22;22043;50.970;7.192;2022-11-25T06:18:17;8.60;99.90
35960;DHT22;22043;50.970;7.192;2022-11-25T06:20:43;8.60;99.90
35960;DHT22;22043;50.970;7.192;2022-11-25T06:23:09;8.60;99.90
35960;DHT22;22043;50.970;7.192;2022-11-25T06:25:36;8.60;99.90
35960;DHT22;22043;50.970;7.192;2022-11-25T06:28:02;8.60;99.90
35960;DHT22;22043;50.970;7.192;2022-11-25T06:30:29;8.50;99.90
35960;DHT22;22043;50.970;7.192;2022-11-25T06:33:06;8.60;99.90
35960;DHT22;22043;50.970;7.192;2022-11-25T06:35:32;8.50;99.90
35960;DHT22;22043;50.970;7.192;2022-11-25T06:38:01;8.60;99.90
35960;DHT22;22043;50.970;7.192;2022-11-25T06:40:26;8.60;99.90
35960;DHT22;22043;50.970;7.192;2022-11-25T06:42:52;8.60;99.90
35960;DHT22;22043;50.970;7.192;2022-11-25T06:45:18;8.60;99.90
35960;DHT22;22043;50.970;7.192;2022-11-25T06:47:43;8.60;99.90
35960;DHT22;22043;50.970;7.192;2022-11-25T06:50:10;8.60;99.90
35960;DHT22;22043;50.970;7.192;2022-11-25T06:52:35;8.60;99.90
35960;DHT22;22043;50.970;7.192;2022-11-25T06:55:02;8.70;99.90
35960;DHT22;22043;50.970;7.192;2022-11-25T06:57:28;8.70;99.90
35960;DHT22;22043;50.970;7.192;2022-11-25T06:59:53;8.60;99.90
35960;DHT22;22043;50.970;7.192;2022-11-25T07:02:19;8.70;99.90
35960;DHT22;22043;50.970;7.192;2022-11-25T07:04:44;8.70;99.90
35960;DHT22;22043;50.970;7.192;2022-11-25T07:07:10;8.70;99.90
35960;DHT22;22043;50.970;7.192;2022-11-25T07:09:36;8.70;99.90
35960;DHT22;22043;50.970;7.192;2022-11-25T07:12:02;8.70;99.90
35960;DHT22;22043;50.970;7.192;2022-11-25T07:14:28;8.80;99.90
35960;DHT22;22043;50.970;7.192;2022-11-25T07:16:53;8.70;99.90
35960;DHT22;22043;50.970;7.192;2022-11-25T07:19:19;8.80;99.90
35960;DHT22;22043;50.970;7.192;2022-11-25T07:21:45;8.80;99.90
35960;DHT22;22043;50.970;7.192;2022-11-25T07:24:15;8.80;99.90
35960;DHT22;22043;50.970;7.192;2022-11-25T07:26:42;8.80;99.90
35960;DHT22;22043;50.970;7.192;2022-11-25T07:29:11;8.80;99.90
35960;DHT22;22043;50.970;7.192;2022-11-25T07:31:42;8.70;99.90
35960;DHT22;22043;50.970;7.192;2022-11-25T07:34:15;8.70;99.90
35960;DHT22;22043;50.970;7.192;2022-11-25T07:36:45;8.70;99.90
35960;DHT22;22043;50.970;7.192;2022-11-25T07:39:20;8.70;99.90
35960;DHT22;22043;50.970;7.192;2022-11-25T07:41:51;8.70;99.90
35960;DHT22;22043;50.970;7.192;2022-11-25T07:44:17;8.80;99.90
35960;DHT22;22043;50.970;7.192;2022-11-25T07:46:49;8.80;99.90
35960;DHT22;22043;50.970;7.192;2022-11-25T07:49:18;8.80;99.90
35960;DHT22;22043;50.970;7.192;2022-11-25T07:51:51;8.80;99.90
35960;DHT22;22043;50.970;7.192;2022-11-25T07:54:18;8.80;99.90
35960;DHT22;22043;50.970;7.192;2022-11-25T07:56:44;8.80;99.90
35960;DHT22;22043;50.970;7.192;2022-11-25T07:59:13;8.80;99.90
35960;DHT22;22043;50.970;7.192;2022-11-25T08:01:39;8.80;99.90
35960;DHT22;22043;50.970;7.192;2022-11-25T08:04:06;8.80;99.90
35960;DHT22;22043;50.970;7.192;2022-11-25T08:06:38;8.90;99.90
35960;DHT22;22043;50.970;7.192;2022-11-25T08:09:04;8.90;99.90
35960;DHT22;22043;50.970;7.192;2022-11-25T08:11:30;9.00;99.90
35960;DHT22;22043;50.970;7.192;2022-11-25T08:13:57;9.00;99.90
35960;DHT22;22043;50.970;7.192;2022-11-25T08:16:25;9.10;99.90
35960;DHT22;22043;50.970;7.192;2022-11-25T08:18:53;9.10;99.90
35960;DHT22;22043;50.970;7.192;2022-11-25T08:21:19;9.00;99.90
35960;DHT22;22043;50.970;7.192;2022-11-25T08:23:45;9.00;99.90
35960;DHT22;22043;50.970;7.192;2022-11-25T08:26:26;9.00;99.90
35960;DHT22;22043;50.970;7.192;2022-11-25T08:28:55;8.90;99.90
35960;DHT22;22043;50.970;7.192;2022-11-25T08:31:27;8.90;99.90
35960;DHT22;22043;50.970;7.192;2022-11-25T08:33:54;8.80;99.90
35960;DHT22;22043;50.970;7.192;2022-11-25T08:36:20;8.80;99.90
35960;DHT22;22043;50.970;7.192;2022-11-25T08:38:48;8.80;99.90
35960;DHT22;22043;50.970;7.192;2022-11-25T08:41:26;8.90;99.90
35960;DHT22;22043;50.970;7.192;2022-11-25T08:43:53;8.90;99.90
35960;DHT22;22043;50.970;7.192;2022-11-25T08:46:22;9.00;99.90
35960;DHT22;22043;50.970;7.192;2022-11-25T08:48:48;9.10;99.90
35960;DHT22;22043;50.970;7.192;2022-11-25T08:51:17;9.20;99.90
35960;DHT22;22043;50.970;7.192;2022-11-25T08:53:44;9.30;99.90
35960;DHT22;22043;50.970;7.192;2022-11-25T08:56:10;9.30;99.90
35960;DHT22;22043;50.970;7.192;2022-11-25T08:58:36;9.40;99.90
35960;DHT22;22043;50.970;7.192;2022-11-25T09:01:03;9.40;99.90
35960;DHT22;22043;50.970;7.192;2022-11-25T09:03:37;9.50;99.90
35960;DHT22;22043;50.970;7.192;2022-11-25T09:06:04;9.40;99.90
35960;DHT22;22043;50.970;7.192;2022-11-25T09:08:30;9.50;99.90
35960;DHT22;22043;50.970;7.192;2022-11-25T09:10:57;9.50;99.90
35960;DHT22;22043;50.970;7.192;2022-11-25T09:13:23;9.50;99.90
35960;DHT22;22043;50.970;7.192;2022-11-25T09:15:49;9.60;99.90
35960;DHT22;22043;50.970;7.192;2022-11-25T09:18:14;9.60;99.90
35960;DHT22;22043;50.970;7.192;2022-11-25T09:20:43;9.60;99.90
35960;DHT22;22043;50.970;7.192;2022-11-25T09:23:09;9.60;99.90
35960;DHT22;22043;50.970;7.192;2022-11-25T09:25:35;9.60;99.90
35960;DHT22;22043;50.970;7.192;2022-11-25T09:28:02;9.60;99.90
35960;DHT22;22043;50.970;7.192;2022-11-25T09:30:28;9.60;99.90
35960;DHT22;22043;50.970;7.192;2022-11-25T09:32:54;9.60;99.90
35960;DHT22;22043;50.970;7.192;2022-11-25T09:35:22;9.60;99.90
35960;DHT22;22043;50.970;7.192;2022-11-25T09:37:48;9.50;99.90
35960;DHT22;22043;50.970;7.192;2022-11-25T09:40:23;9.50;99.90
35960;DHT22;22043;50.970;7.192;2022-11-25T09:42:57;9.50;99.90
35960;DHT22;22043;50.970;7.192;2022-11-25T09:46:15;9.50;99.90
35960;DHT22;22043;50.970;7.192;2022-11-25T09:54:38;9.50;99.90
35960;DHT22;22043;50.970;7.192;2022-11-25T10:00:06;9.60;99.90
35960;DHT22;22043;50.970;7.192;2022-11-25T10:06:00;9.70;99.90
35960;DHT22;22043;50.970;7.192;2022-11-25T10:08:31;9.70;99.90
35960;DHT22;22043;50.970;7.192;2022-11-25T10:11:17;9.80;99.90
35960;DHT22;22043;50.970;7.192;2022-11-25T10:14:00;9.80;99.90
35960;DHT22;22043;50.970;7.192;2022-11-25T10:16:47;9.80;99.90
35960;DHT22;22043;50.970;7.192;2022-11-25T10:19:35;9.80;99.90
35960;DHT22;22043;50.970;7.192;2022-11-25T10:22:28;9.80;99.90
35960;DHT22;22043;50.970;7.192;2022-11-25T10:25:28;9.80;99.90
35960;DHT22;22043;50.970;7.192;2022-11-25T10:28:16;9.80;99.90
35960;DHT22;22043;50.970;7.192;2022-11-25T10:30:44;9.80;99.90
35960;DHT22;22043;50.970;7.192;2022-11-25T10:33:25;10.00;99.90
35960;DHT22;22043;50.970;7.192;2022-11-25T10:36:20;10.10;99.90
35960;DHT22;22043;50.970;7.192;2022-11-25T10:39:04;10.20;99.90
35960;DHT22;22043;50.970;7.192;2022-11-25T10:41:51;10.30;99.90
35960;DHT22;22043;50.970;7.192;2022-11-25T10:44:28;10.40;99.90
35960;DHT22;22043;50.970;7.192;2022-11-25T10:52:13;10.50;99.90
35960;DHT22;22043;50.970;7.192;2022-11-25T10:54:39;10.50;99.90
35960;DHT22;22043;50.970;7.192;2022-11-25T10:57:19;10.50;99.90
35960;DHT22;22043;50.970;7.192;2022-11-25T10:59:56;10.50;99.90
35960;DHT22;22043;50.970;7.192;2022-11-25T11:02:28;10.60;99.90
35960;DHT22;22043;50.970;7.192;2022-11-25T11:04:58;10.60;99.90
35960;DHT22;22043;50.970;7.192;2022-11-25T11:07:34;10.70;99.90
35960;DHT22;22043;50.970;7.192;2022-11-25T11:10:19;10.80;99.90
35960;DHT22;22043;50.970;7.192;2022-11-25T11:12:55;10.90;99.90
35960;DHT22;22043;50.970;7.192;2022-11-25T11:15:24;10.90;99.90
35960;DHT22;22043;50.970;7.192;2022-11-25T11:17:51;11.00;99.90
35960;DHT22;22043;50.970;7.192;2022-11-25T11:23:09;11.00;99.90
35960;DHT22;22043;50.970;7.192;2022-11-25T11:25:38;11.00;99.90
35960;DHT22;22043;50.970;7.192;2022-11-25T11:30:56;11.00;99.90
35960;DHT22;22043;50.970;7.192;2022-11-25T11:38:55;11.10;99.90
35960;DHT22;22043;50.970;7.192;2022-11-25T11:41:59;11.10;99.90
35960;DHT22;22043;50.970;7.192;2022-11-25T11:49:58;11.10;99.90
35960;DHT22;22043;50.970;7.192;2022-11-25T11:53:01;11.10;99.90
35960;DHT22;22043;50.970;7.192;2022-11-25T12:04:11;11.20;99.90
35960;DHT22;22043;50.970;7.192;2022-11-25T12:06:41;11.30;99.90
35960;DHT22;22043;50.970;7.192;2022-11-25T12:09:14;11.30;99.90
35960;DHT22;22043;50.970;7.192;2022-11-25T12:11:44;11.30;99.90
35960;DHT22;22043;50.970;7.192;2022-11-25T12:14:34;11.30;99.90
35960;DHT22;22043;50.970;7.192;2022-11-25T12:17:06;11.40;99.90
35960;DHT22;22043;50.970;7.192;2022-11-25T12:19:54;11.40;99.90
35960;DHT22;22043;50.970;7.192;2022-11-25T12:22:34;11.40;99.90
35960;DHT22;22043;50.970;7.192;2022-11-25T12:25:23;11.40;99.90
35960;DHT22;22043;50.970;7.192;2022-11-25T12:30:44;11.30;99.90
35960;DHT22;22043;50.970;7.192;2022-11-25T12:33:22;11.30;99.90
35960;DHT22;22043;50.970;7.192;2022-11-25T12:36:07;11.30;99.90
35960;DHT22;22043;50.970;7.192;2022-11-25T12:38:54;11.30;99.90
35960;DHT22;22043;50.970;7.192;2022-11-25T12:44:03;11.30;99.90
35960;DHT22;22043;50.970;7.192;2022-11-25T12:49:00;11.30;99.90
35960;DHT22;22043;50.970;7.192;2022-11-25T13:00:09;11.40;99.90
35960;DHT22;22043;50.970;7.192;2022-11-25T13:05:26;11.30;99.90
35960;DHT22;22043;50.970;7.192;2022-11-25T13:15:47;11.20;99.90
35960;DHT22;22043;50.970;7.192;2022-11-25T13:18:21;11.20;99.90
35960;DHT22;22043;50.970;7.192;2022-11-25T13:20:55;11.20;99.90
35960;DHT22;22043;50.970;7.192;2022-11-25T13:23:23;11.20;99.90
35960;DHT22;22043;50.970;7.192;2022-11-25T13:25:51;11.20;99.90
35960;DHT22;22043;50.970;7.192;2022-11-25T13:28:34;11.20;99.90
35960;DHT22;22043;50.970;7.192;2022-11-25T13:33:58;11.30;99.90
35960;DHT22;22043;50.970;7.192;2022-11-25T13:36:42;11.30;99.90
35960;DHT22;22043;50.970;7.192;2022-11-25T13:39:13;11.30;99.90
35960;DHT22;22043;50.970;7.192;2022-11-25T13:44:32;11.30;99.90
35960;DHT22;22043;50.970;7.192;2022-11-25T13:47:22;11.30;99.90
35960;DHT22;22043;50.970;7.192;2022-11-25T13:54:50;11.30;99.90
35960;DHT22;22043;50.970;7.192;2022-11-25T14:02:45;11.30;99.90
35960;DHT22;22043;50.970;7.192;2022-11-25T14:05:40;11.30;99.90
35960;DHT22;22043;50.970;7.192;2022-11-25T14:20:05;11.30;99.90
35960;DHT22;22043;50.970;7.192;2022-11-25T14:23:14;11.30;99.90
35960;DHT22;22043;50.970;7.192;2022-11-25T14:31:02;11.40;99.90
35960;DHT22;22043;50.970;7.192;2022-11-25T14:33:58;11.40;99.90
35960;DHT22;22043;50.970;7.192;2022-11-25T14:36:30;11.40;99.90
35960;DHT22;22043;50.970;7.192;2022-11-25T14:39:03;11.40;99.90
35960;DHT22;22043;50.970;7.192;2022-11-25T14:42:01;11.40;99.90
35960;DHT22;22043;50.970;7.192;2022-11-25T14:44:48;11.40;99.90
35960;DHT22;22043;50.970;7.192;2022-11-25T14:47:14;11.40;99.90
35960;DHT22;22043;50.970;7.192;2022-11-25T14:49:44;11.30;99.90
35960;DHT22;22043;50.970;7.192;2022-11-25T14:52:20;11.30;99.90
35960;DHT22;22043;50.970;7.192;2022-11-25T14:54:47;11.20;99.90
35960;DHT22;22043;50.970;7.192;2022-11-25T14:57:18;11.10;99.90
35960;DHT22;22043;50.970;7.192;2022-11-25T14:59:45;11.10;99.90
35960;DHT22;22043;50.970;7.192;2022-11-25T15:02:32;11.00;99.90
35960;DHT22;22043;50.970;7.192;2022-11-25T15:07:33;10.90;99.90
35960;DHT22;22043;50.970;7.192;2022-11-25T15:09:59;10.90;99.90
35960;DHT22;22043;50.970;7.192;2022-11-25T15:12:30;10.90;99.90
35960;DHT22;22043;50.970;7.192;2022-11-25T15:14:57;10.90;99.90
35960;DHT22;22043;50.970;7.192;2022-11-25T15:17:32;10.90;99.90
35960;DHT22;22043;50.970;7.192;2022-11-25T15:20:09;10.90;99.90
35960;DHT22;22043;50.970;7.192;2022-11-25T15:22:36;10.80;99.90
35960;DHT22;22043;50.970;7.192;2022-11-25T15:25:07;10.80;99.90
35960;DHT22;22043;50.970;7.192;2022-11-25T15:27:34;10.80;99.90
35960;DHT22;22043;50.970;7.192;2022-11-25T15:30:40;10.80;99.90
35960;DHT22;22043;50.970;7.192;2022-11-25T15:33:09;10.80;99.90
35960;DHT22;22043;50.970;7.192;2022-11-25T15:35:35;10.80;99.90
35960;DHT22;22043;50.970;7.192;2022-11-25T15:38:16;10.80;99.90
35960;DHT22;22043;50.970;7.192;2022-11-25T15:40:42;10.80;99.90
35960;DHT22;22043;50.970;7.192;2022-11-25T15:43:22;10.80;99.90
35960;DHT22;22043;50.970;7.192;2022-11-25T15:45:49;10.80;99.90
35960;DHT22;22043;50.970;7.192;2022-11-25T15:48:38;10.80;99.90
35960;DHT22;22043;50.970;7.192;2022-11-25T15:53:53;10.70;99.90
35960;DHT22;22043;50.970;7.192;2022-11-25T15:56:23;10.80;99.90
35960;DHT22;22043;50.970;7.192;2022-11-25T15:58:50;10.70;99.90
35960;DHT22;22043;50.970;7.192;2022-11-25T16:03:45;10.70;99.90
35960;DHT22;22043;50.970;7.192;2022-11-25T16:06:22;10.70;99.90
35960;DHT22;22043;50.970;7.192;2022-11-25T16:09:18;10.70;99.90
35960;DHT22;22043;50.970;7.192;2022-11-25T16:11:45;10.60;99.90
35960;DHT22;22043;50.970;7.192;2022-11-25T16:14:27;10.60;99.90
35960;DHT22;22043;50.970;7.192;2022-11-25T16:17:00;10.60;99.90
35960;DHT22;22043;50.970;7.192;2022-11-25T16:19:33;10.70;99.90
35960;DHT22;22043;50.970;7.192;2022-11-25T16:22:02;10.70;99.90
35960;DHT22;22043;50.970;7.192;2022-11-25T16:27:02;10.70;99.90
35960;DHT22;22043;50.970;7.192;2022-11-25T16:29:38;10.60;99.90
35960;DHT22;22043;50.970;7.192;2022-11-25T16:32:17;10.70;99.90
35960;DHT22;22043;50.970;7.192;2022-11-25T16:34:43;10.60;99.90
35960;DHT22;22043;50.970;7.192;2022-11-25T16:37:08;10.60;99.90
35960;DHT22;22043;50.970;7.192;2022-11-25T16:39:35;10.60;99.90
35960;DHT22;22043;50.970;7.192;2022-11-25T16:42:01;10.60;99.90
35960;DHT22;22043;50.970;7.192;2022-11-25T16:44:29;10.60;99.90
35960;DHT22;22043;50.970;7.192;2022-11-25T16:46:56;10.60;99.90
35960;DHT22;22043;50.970;7.192;2022-11-25T16:49:22;10.60;99.90
35960;DHT22;22043;50.970;7.192;2022-11-25T16:51:49;10.60;99.90
35960;DHT22;22043;50.970;7.192;2022-11-25T16:54:19;10.60;99.90
35960;DHT22;22043;50.970;7.192;2022-11-25T16:56:50;10.60;99.90
35960;DHT22;22043;50.970;7.192;2022-11-25T16:59:28;10.60;99.90
35960;DHT22;22043;50.970;7.192;2022-11-25T17:01:54;10.60;99.90
35960;DHT22;22043;50.970;7.192;2022-11-25T17:04:20;10.60;99.90
35960;DHT22;22043;50.970;7.192;2022-11-25T17:06:46;10.60;99.90
35960;DHT22;22043;50.970;7.192;2022-11-25T17:09:12;10.60;99.90
35960;DHT22;22043;50.970;7.192;2022-11-25T17:11:47;10.60;99.90
35960;DHT22;22043;50.970;7.192;2022-11-25T17:14:30;10.60;99.90
35960;DHT22;22043;50.970;7.192;2022-11-25T17:16:58;10.50;99.90
35960;DHT22;22043;50.970;7.192;2022-11-25T17:19:24;10.50;99.90
35960;DHT22;22043;50.970;7.192;2022-11-25T17:21:50;10.50;99.90
35960;DHT22;22043;50.970;7.192;2022-11-25T17:24:18;10.50;99.90
35960;DHT22;22043;50.970;7.192;2022-11-25T17:26:53;10.50;99.90
35960;DHT22;22043;50.970;7.192;2022-11-25T17:29:24;10.50;99.90
35960;DHT22;22043;50.970;7.192;2022-11-25T17:31:52;10.50;99.90
35960;DHT22;22043;50.970;7.192;2022-11-25T17:34:18;10.50;99.90
35960;DHT22;22043;50.970;7.192;2022-11-25T17:36:44;10.60;99.90
35960;DHT22;22043;50.970;7.192;2022-11-25T17:39:11;10.50;99.90
35960;DHT22;22043;50.970;7.192;2022-11-25T17:41:41;10.50;99.90
35960;DHT22;22043;50.970;7.192;2022-11-25T17:44:26;10.50;99.90
35960;DHT22;22043;50.970;7.192;2022-11-25T17:46:53;10.50;99.90
35960;DHT22;22043;50.970;7.192;2022-11-25T17:49:19;10.50;99.90
35960;DHT22;22043;50.970;7.192;2022-11-25T17:51:45;10.50;99.90
35960;DHT22;22043;50.970;7.192;2022-11-25T17:54:11;10.50;99.90
35960;DHT22;22043;50.970;7.192;2022-11-25T17:56:39;10.50;99.90
35960;DHT22;22043;50.970;7.192;2022-11-25T17:59:09;10.50;99.90
35960;DHT22;22043;50.970;7.192;2022-11-25T18:01:35;10.50;99.90